Time;durP1;ratioP1;P1;durP2;ratioP2;P2;SDS_P1;SDS_P2;PMS_P1;PMS_P2;Temp;Humidity;BMP_temperature;BMP_pressure;BME280_temperature;BME280_humidity;BME280_pressure;Samples;Min_cycle;Max_cycle;Signal;HPM_P1;HPM_P2
2023/10/24 00:00:22;;;;;;;22.02;10.93;;;;;;;;;;5021524;28;20049;-67
2023/10/24 00:02:48;;;;;;;18.98;11.18;;;;;;;;;;5020338;28;20041;-66
2023/10/24 00:05:14;;;;;;;20.13;11.07;;;;;;;;;;5001992;28;20107;-67
2023/10/24 00:07:40;;;;;;;22.77;11.27;;;;;;;;;;5020156;28;20061;-67
2023/10/24 00:10:06;;;;;;;24.90;10.95;;;;;;;;;;5020047;28;20201;-67
2023/10/24 00:12:32;;;;;;;24.98;11.85;;;;;;;;;;5012811;28;20048;-67
2023/10/24 00:14:58;;;;;;;27.02;11.98;;;;;;;;;;5012028;28;20046;-67
2023/10/24 00:17:24;;;;;;;25.17;11.38;;;;;;;;;;5004170;28;20561;-67
2023/10/24 00:19:51;;;;;;;21.05;11.02;;;;;;;;;;5017789;28;20502;-67
2023/10/24 00:22:16;;;;;;;21.45;10.90;;;;;;;;;;5017294;28;20045;-67
2023/10/24 00:24:43;;;;;;;20.40;11.27;;;;;;;;;;5011663;28;20049;-67
2023/10/24 00:27:09;;;;;;;26.38;11.43;;;;;;;;;;5013546;28;20045;-66
2023/10/24 00:29:35;;;;;;;22.13;10.65;;;;;;;;;;4991631;28;20128;-67
2023/10/24 00:32:01;;;;;;;22.92;10.82;;;;;;;;;;5018445;28;20136;-66
2023/10/24 00:34:27;;;;;;;25.67;11.18;;;;;;;;;;5012671;28;20033;-66
2023/10/24 00:36:53;;;;;;;22.98;11.82;;;;;;;;;;5011487;28;20046;-66
2023/10/24 00:39:18;;;;;;;27.52;11.40;;;;;;;;;;5007074;28;20462;-66
2023/10/24 00:41:45;;;;;;;26.25;11.43;;;;;;;;;;5009625;28;20078;-66
2023/10/24 00:44:11;;;;;;;22.13;11.52;;;;;;;;;;5021053;28;20049;-66
2023/10/24 00:46:38;;;;;;;20.48;11.63;;;;;;;;;;5022038;28;20038;-66
2023/10/24 00:49:04;;;;;;;26.58;11.07;;;;;;;;;;5000019;28;20463;-66
2023/10/24 00:51:30;;;;;;;27.75;11.90;;;;;;;;;;5001950;28;20073;-67
2023/10/24 00:53:58;;;;;;;23.38;12.18;;;;;;;;;;5014424;28;20045;-66
2023/10/24 00:56:24;;;;;;;19.77;10.50;;;;;;;;;;5003485;28;20860;-66
2023/10/24 00:58:50;;;;;;;24.45;12.02;;;;;;;;;;5013206;28;20103;-66
2023/10/24 01:01:17;;;;;;;23.35;11.20;;;;;;;;;;5022047;28;20037;-66
2023/10/24 01:03:44;;;;;;;24.35;12.32;;;;;;;;;;5019429;28;20072;-66
2023/10/24 01:06:10;;;;;;;23.00;11.75;;;;;;;;;;5018773;28;20042;-67
2023/10/24 01:08:36;;;;;;;21.63;11.00;;;;;;;;;;5008161;28;20407;-66
2023/10/24 01:11:03;;;;;;;23.58;11.13;;;;;;;;;;5016790;28;20050;-66
2023/10/24 01:13:29;;;;;;;22.90;11.68;;;;;;;;;;5085590;23;20064;-67
2023/10/24 01:15:55;;;;;;;20.77;10.23;;;;;;;;;;5060717;28;20041;-67
2023/10/24 01:18:21;;;;;;;21.05;11.52;;;;;;;;;;5054115;28;20124;-66
2023/10/24 01:20:47;;;;;;;24.38;11.20;;;;;;;;;;5060651;28;20037;-67
2023/10/24 01:23:13;;;;;;;20.60;10.45;;;;;;;;;;5052111;28;20069;-66
2023/10/24 01:25:40;;;;;;;18.95;9.52;;;;;;;;;;5063778;28;20131;-67
2023/10/24 01:28:07;;;;;;;21.13;10.32;;;;;;;;;;5062558;28;20072;-66
2023/10/24 01:30:33;;;;;;;17.90;10.20;;;;;;;;;;5063905;28;20042;-66
2023/10/24 01:32:59;;;;;;;19.35;10.43;;;;;;;;;;5042982;28;20040;-66
2023/10/24 01:35:25;;;;;;;17.55;9.65;;;;;;;;;;5050057;28;20047;-67
2023/10/24 01:37:51;;;;;;;15.88;9.57;;;;;;;;;;5062341;28;20040;-66
2023/10/24 01:40:17;;;;;;;20.83;9.70;;;;;;;;;;5061700;28;20044;-67
2023/10/24 01:42:43;;;;;;;18.02;9.18;;;;;;;;;;5064552;28;20130;-66
2023/10/24 01:45:10;;;;;;;18.35;9.88;;;;;;;;;;5057183;28;20044;-66
2023/10/24 01:47:36;;;;;;;17.88;10.27;;;;;;;;;;5064117;28;20389;-66
2023/10/24 01:50:02;;;;;;;15.90;9.02;;;;;;;;;;5063892;28;20045;-66
2023/10/24 01:52:28;;;;;;;16.45;9.48;;;;;;;;;;5044145;28;20053;-66
2023/10/24 01:54:54;;;;;;;18.50;9.98;;;;;;;;;;5056477;28;20099;-66
2023/10/24 01:57:20;;;;;;;15.43;9.00;;;;;;;;;;5055571;28;20032;-66
2023/10/24 01:59:47;;;;;;;16.23;9.20;;;;;;;;;;5069731;28;20098;-66
2023/10/24 02:02:13;;;;;;;20.13;9.57;;;;;;;;;;5066073;28;20037;-66
2023/10/24 02:04:39;;;;;;;20.20;9.43;;;;;;;;;;5066732;28;20046;-66
2023/10/24 02:07:05;;;;;;;16.08;9.00;;;;;;;;;;5070084;28;20298;-66
2023/10/24 02:09:31;;;;;;;17.80;8.93;;;;;;;;;;5075123;28;20521;-67
2023/10/24 02:12:00;;;;;;;17.58;9.77;;;;;;;;;;5066126;28;20049;-66
2023/10/24 02:14:26;;;;;;;19.38;9.35;;;;;;;;;;5070437;28;20237;-66
2023/10/24 02:16:52;;;;;;;18.40;10.15;;;;;;;;;;5082232;28;20561;-66
2023/10/24 02:19:18;;;;;;;19.33;9.65;;;;;;;;;;5083195;28;20160;-66
2023/10/24 02:21:44;;;;;;;17.05;8.75;;;;;;;;;;5077074;28;20119;-67
2023/10/24 02:24:10;;;;;;;17.80;9.88;;;;;;;;;;5047342;28;20462;-66
2023/10/24 02:26:36;;;;;;;16.67;8.98;;;;;;;;;;5076626;28;20037;-66
2023/10/24 02:29:02;;;;;;;18.80;9.68;;;;;;;;;;5064369;28;20036;-66
2023/10/24 02:31:28;;;;;;;25.05;9.85;;;;;;;;;;5066983;28;20485;-66
2023/10/24 02:33:54;;;;;;;22.55;9.95;;;;;;;;;;5068105;28;20037;-66
2023/10/24 02:36:20;;;;;;;19.75;9.50;;;;;;;;;;5062619;28;20449;-67
2023/10/24 02:38:46;;;;;;;21.20;10.20;;;;;;;;;;5069701;28;20047;-67
2023/10/24 02:41:13;;;;;;;18.67;9.27;;;;;;;;;;5070219;28;20055;-67
2023/10/24 02:43:39;;;;;;;17.65;8.65;;;;;;;;;;5071885;28;20033;-67
2023/10/24 02:46:06;;;;;;;21.48;10.32;;;;;;;;;;5079474;28;20568;-67
2023/10/24 02:48:32;;;;;;;21.40;9.93;;;;;;;;;;5075839;28;20032;-67
2023/10/24 02:50:58;;;;;;;22.90;10.27;;;;;;;;;;5074029;28;20128;-67
2023/10/24 02:53:25;;;;;;;19.98;11.45;;;;;;;;;;5075047;28;20063;-67
2023/10/24 02:55:51;;;;;;;20.08;9.98;;;;;;;;;;5071418;28;20037;-67
2023/10/24 02:58:17;;;;;;;21.35;10.57;;;;;;;;;;5071019;28;20040;-67
2023/10/24 03:00:44;;;;;;;22.48;10.95;;;;;;;;;;5074047;28;20128;-67
2023/10/24 03:03:10;;;;;;;17.85;10.23;;;;;;;;;;5064703;28;20048;-67
2023/10/24 03:05:36;;;;;;;22.55;11.38;;;;;;;;;;5065649;28;20610;-67
2023/10/24 03:08:02;;;;;;;23.75;10.65;;;;;;;;;;5062917;28;20131;-67
2023/10/24 03:10:28;;;;;;;24.05;11.23;;;;;;;;;;5070752;28;20109;-67
2023/10/24 03:12:55;;;;;;;22.42;11.77;;;;;;;;;;5051299;28;20052;-67
2023/10/24 03:15:21;;;;;;;20.42;10.23;;;;;;;;;;5078427;28;20051;-67
2023/10/24 03:17:47;;;;;;;21.65;10.93;;;;;;;;;;5057115;28;20489;-67
2023/10/24 03:20:13;;;;;;;20.88;11.40;;;;;;;;;;5079582;28;20105;-67
2023/10/24 03:22:39;;;;;;;20.85;10.20;;;;;;;;;;5064694;28;20040;-67
2023/10/24 03:25:06;;;;;;;18.67;10.75;;;;;;;;;;5083200;28;20070;-66
2023/10/24 03:27:32;;;;;;;27.92;12.02;;;;;;;;;;5068581;28;20055;-66
2023/10/24 03:29:58;;;;;;;22.45;11.52;;;;;;;;;;5065324;28;20044;-66
2023/10/24 03:32:24;;;;;;;23.52;11.25;;;;;;;;;;5062382;28;20074;-66
2023/10/24 03:34:50;;;;;;;20.85;10.52;;;;;;;;;;5049808;28;20072;-66
2023/10/24 03:37:17;;;;;;;24.35;11.77;;;;;;;;;;5070876;28;20058;-66
2023/10/24 03:39:45;;;;;;;20.33;11.30;;;;;;;;;;5071466;28;20079;-66
2023/10/24 03:42:13;;;;;;;25.85;12.35;;;;;;;;;;5066462;28;20050;-67
2023/10/24 03:44:40;;;;;;;22.48;12.10;;;;;;;;;;5074666;28;20052;-66
2023/10/24 03:47:06;;;;;;;24.27;12.18;;;;;;;;;;5066281;28;20292;-66
2023/10/24 03:49:32;;;;;;;22.85;12.32;;;;;;;;;;5078156;28;20040;-66
2023/10/24 03:51:58;;;;;;;24.75;12.57;;;;;;;;;;5069564;28;20055;-66
2023/10/24 03:54:24;;;;;;;28.90;12.45;;;;;;;;;;5075873;28;20040;-67
2023/10/24 03:56:50;;;;;;;23.90;12.20;;;;;;;;;;5077613;28;20529;-67
2023/10/24 03:59:16;;;;;;;25.92;13.75;;;;;;;;;;5051923;28;20085;-66
2023/10/24 04:01:42;;;;;;;30.55;12.43;;;;;;;;;;5063254;28;20074;-66
2023/10/24 04:04:08;;;;;;;29.45;12.77;;;;;;;;;;5061363;28;20664;-66
2023/10/24 04:06:34;;;;;;;24.17;13.05;;;;;;;;;;5047661;28;20068;-67
2023/10/24 04:09:04;;;;;;;25.23;11.93;;;;;;;;;;5069912;28;20105;-66
2023/10/24 04:11:31;;;;;;;24.00;12.30;;;;;;;;;;5066209;28;20067;-66
2023/10/24 04:13:58;;;;;;;27.23;13.68;;;;;;;;;;5069196;28;20063;-66
2023/10/24 04:16:24;;;;;;;28.83;12.70;;;;;;;;;;5075023;28;20501;-66
2023/10/24 04:18:50;;;;;;;29.67;13.27;;;;;;;;;;5078413;28;20036;-66
2023/10/24 04:21:16;;;;;;;26.35;13.80;;;;;;;;;;5075028;28;20046;-66
2023/10/24 04:23:42;;;;;;;27.20;12.82;;;;;;;;;;5070402;28;20040;-66
2023/10/24 04:26:09;;;;;;;24.40;12.77;;;;;;;;;;5075797;28;20040;-66
2023/10/24 04:28:35;;;;;;;27.67;13.27;;;;;;;;;;5063472;28;20083;-67
2023/10/24 04:31:01;;;;;;;21.85;11.98;;;;;;;;;;5064671;28;20072;-66
2023/10/24 04:33:27;;;;;;;26.27;12.77;;;;;;;;;;5064474;28;20052;-66
2023/10/24 04:35:53;;;;;;;24.08;12.70;;;;;;;;;;5059956;28;20041;-66
2023/10/24 04:38:19;;;;;;;23.65;12.38;;;;;;;;;;5069010;28;20498;-66
2023/10/24 04:40:45;;;;;;;24.20;12.23;;;;;;;;;;5074497;28;20044;-67
2023/10/24 04:43:11;;;;;;;20.02;12.55;;;;;;;;;;5061471;28;20040;-67
2023/10/24 04:45:38;;;;;;;22.73;12.30;;;;;;;;;;5051830;28;20069;-66
2023/10/24 04:48:04;;;;;;;21.58;11.85;;;;;;;;;;5061172;28;20100;-67
2023/10/24 04:50:31;;;;;;;20.55;11.60;;;;;;;;;;5044544;28;20256;-66
2023/10/24 04:52:57;;;;;;;18.15;11.27;;;;;;;;;;5062896;28;20037;-66
2023/10/24 04:55:23;;;;;;;19.92;10.73;;;;;;;;;;5063935;28;20045;-66
2023/10/24 04:57:50;;;;;;;19.67;11.55;;;;;;;;;;5070745;28;20055;-66
2023/10/24 05:00:16;;;;;;;22.92;11.55;;;;;;;;;;5065888;28;20049;-66
2023/10/24 05:02:43;;;;;;;18.40;10.57;;;;;;;;;;5064193;28;20500;-66
2023/10/24 05:05:10;;;;;;;17.25;10.73;;;;;;;;;;5065975;28;20165;-66
2023/10/24 05:07:36;;;;;;;19.50;10.93;;;;;;;;;;5066400;28;20047;-66
2023/10/24 05:10:03;;;;;;;18.63;11.13;;;;;;;;;;5067955;28;20044;-65
2023/10/24 05:12:29;;;;;;;18.40;10.27;;;;;;;;;;5071140;28;20040;-65
2023/10/24 05:14:55;;;;;;;15.65;9.80;;;;;;;;;;5074951;28;20048;-66
2023/10/24 05:17:21;;;;;;;18.17;9.52;;;;;;;;;;5050244;28;20052;-66
2023/10/24 05:19:47;;;;;;;19.13;9.35;;;;;;;;;;5069852;28;20036;-66
2023/10/24 05:22:16;;;;;;;14.80;8.45;;;;;;;;;;5080414;28;20044;-66
2023/10/24 05:24:42;;;;;;;16.58;9.50;;;;;;;;;;5077576;28;20044;-65
2023/10/24 05:27:08;;;;;;;13.23;8.10;;;;;;;;;;5082898;28;20048;-65
2023/10/24 05:29:34;;;;;;;14.98;8.23;;;;;;;;;;5079567;28;20600;-66
2023/10/24 05:32:01;;;;;;;17.67;8.30;;;;;;;;;;5073757;28;20066;-65
2023/10/24 05:34:27;;;;;;;13.00;8.07;;;;;;;;;;5052030;28;20401;-66
2023/10/24 05:36:53;;;;;;;15.90;8.75;;;;;;;;;;5074674;28;20040;-66
2023/10/24 05:39:19;;;;;;;14.45;7.90;;;;;;;;;;5074921;28;20090;-66
2023/10/24 05:41:46;;;;;;;12.15;7.75;;;;;;;;;;5070388;28;20040;-66
2023/10/24 05:44:12;;;;;;;16.88;8.02;;;;;;;;;;5084171;28;20185;-66
2023/10/24 05:46:38;;;;;;;15.07;7.80;;;;;;;;;;5046199;28;20051;-66
2023/10/24 05:49:04;;;;;;;15.57;7.85;;;;;;;;;;5068097;28;20041;-64
2023/10/24 05:51:30;;;;;;;15.88;8.35;;;;;;;;;;5066393;28;20422;-64
2023/10/24 05:53:57;;;;;;;16.73;7.97;;;;;;;;;;5059858;28;20040;-64
2023/10/24 05:56:23;;;;;;;12.73;7.78;;;;;;;;;;5064339;28;20040;-64
2023/10/24 05:58:49;;;;;;;14.77;8.02;;;;;;;;;;5056769;28;20040;-64
2023/10/24 06:01:15;;;;;;;13.75;7.55;;;;;;;;;;5071716;28;20052;-65
2023/10/24 06:03:41;;;;;;;20.48;8.57;;;;;;;;;;5062143;28;20041;-65
2023/10/24 06:06:07;;;;;;;11.60;7.20;;;;;;;;;;5062974;28;20050;-65
2023/10/24 06:08:33;;;;;;;13.35;7.90;;;;;;;;;;5064761;28;20755;-65
2023/10/24 06:11:00;;;;;;;16.08;8.23;;;;;;;;;;5063468;28;20062;-65
2023/10/24 06:13:26;;;;;;;11.95;7.38;;;;;;;;;;5057301;28;20087;-64
2023/10/24 06:15:52;;;;;;;12.10;7.10;;;;;;;;;;5063854;28;20076;-64
2023/10/24 06:18:18;;;;;;;13.57;7.63;;;;;;;;;;5071649;28;20043;-65
2023/10/24 06:20:44;;;;;;;13.30;8.07;;;;;;;;;;5077690;28;20457;-65
2023/10/24 06:23:11;;;;;;;16.77;8.23;;;;;;;;;;5047952;28;20449;-65
2023/10/24 06:25:38;;;;;;;13.07;7.40;;;;;;;;;;5067758;28;20055;-65
2023/10/24 06:28:04;;;;;;;14.40;7.78;;;;;;;;;;5072537;28;20044;-65
2023/10/24 06:30:30;;;;;;;12.20;8.13;;;;;;;;;;5072784;28;20436;-64
2023/10/24 06:32:56;;;;;;;15.27;7.65;;;;;;;;;;5075635;28;20080;-64
2023/10/24 06:35:22;;;;;;;14.00;7.93;;;;;;;;;;5082882;28;20072;-64
2023/10/24 06:37:48;;;;;;;13.07;7.90;;;;;;;;;;5079137;28;20654;-64
2023/10/24 06:40:14;;;;;;;14.73;7.80;;;;;;;;;;5074392;28;20621;-65
2023/10/24 06:42:40;;;;;;;14.35;7.68;;;;;;;;;;5045492;28;20048;-65
2023/10/24 06:45:07;;;;;;;16.38;8.07;;;;;;;;;;5064150;28;20074;-65
2023/10/24 06:47:33;;;;;;;12.88;7.20;;;;;;;;;;5067634;28;20052;-65
2023/10/24 06:49:59;;;;;;;10.90;6.93;;;;;;;;;;5064402;28;20037;-65
2023/10/24 06:52:25;;;;;;;12.30;7.35;;;;;;;;;;5063493;28;20053;-65
2023/10/24 06:54:51;;;;;;;12.25;7.05;;;;;;;;;;5068896;28;20122;-64
2023/10/24 06:57:18;;;;;;;13.85;7.43;;;;;;;;;;5073144;28;20083;-65
2023/10/24 06:59:45;;;;;;;15.13;7.20;;;;;;;;;;5069703;28;20048;-64
2023/10/24 07:02:10;;;;;;;10.65;7.25;;;;;;;;;;5064371;28;20130;-65
2023/10/24 07:04:36;;;;;;;11.48;7.20;;;;;;;;;;5065230;28;20074;-65
2023/10/24 07:07:03;;;;;;;18.42;7.57;;;;;;;;;;5052697;28;20047;-65
2023/10/24 07:09:29;;;;;;;18.05;7.00;;;;;;;;;;5068009;28;20036;-64
2023/10/24 07:11:55;;;;;;;16.25;7.78;;;;;;;;;;5062828;28;20535;-64
2023/10/24 07:14:21;;;;;;;13.35;7.43;;;;;;;;;;5068153;28;20045;-64
2023/10/24 07:16:47;;;;;;;11.65;6.40;;;;;;;;;;5078409;28;20115;-65
2023/10/24 07:19:13;;;;;;;13.38;7.55;;;;;;;;;;5077325;28;20542;-65
2023/10/24 07:21:39;;;;;;;13.13;7.20;;;;;;;;;;5073104;28;20036;-65
2023/10/24 07:24:06;;;;;;;25.70;10.85;;;;;;;;;;5076955;28;20130;-64
2023/10/24 07:26:32;;;;;;;37.00;10.35;;;;;;;;;;5076204;28;20045;-65
2023/10/24 07:28:58;;;;;;;15.35;7.57;;;;;;;;;;5063952;28;20044;-65
2023/10/24 07:31:23;;;;;;;14.65;8.07;;;;;;;;;;5065073;28;20576;-65
2023/10/24 07:33:50;;;;;;;13.40;7.78;;;;;;;;;;5067596;28;20257;-65
2023/10/24 07:36:16;;;;;;;15.90;7.47;;;;;;;;;;5070298;28;20087;-65
2023/10/24 07:38:42;;;;;;;15.40;7.72;;;;;;;;;;5070537;28;20048;-65
2023/10/24 07:41:10;;;;;;;13.13;7.40;;;;;;;;;;5059531;28;20075;-65
2023/10/24 07:43:36;;;;;;;11.25;6.40;;;;;;;;;;5057441;28;20512;-65
2023/10/24 07:46:02;;;;;;;13.68;7.53;;;;;;;;;;5076759;28;20059;-65
2023/10/24 07:48:29;;;;;;;13.43;7.28;;;;;;;;;;5074883;28;20037;-65
2023/10/24 07:50:56;;;;;;;12.77;6.78;;;;;;;;;;5079775;28;20075;-65
2023/10/24 07:53:26;;;;;;;15.30;8.33;;;;;;;;;;5063971;28;20047;-65
2023/10/24 07:55:53;;;;;;;15.02;7.30;;;;;;;;;;5081210;28;20289;-65
2023/10/24 07:58:19;;;;;;;11.73;6.93;;;;;;;;;;5077678;28;20072;-65
2023/10/24 08:00:45;;;;;;;11.68;6.97;;;;;;;;;;5071991;28;20036;-65
2023/10/24 08:03:15;;;;;;;10.32;6.32;;;;;;;;;;5063591;28;20044;-65
2023/10/24 08:05:41;;;;;;;12.20;6.90;;;;;;;;;;5063419;28;20039;-65
2023/10/24 08:08:07;;;;;;;16.00;7.60;;;;;;;;;;5065698;28;20072;-65
2023/10/24 08:10:34;;;;;;;15.32;7.90;;;;;;;;;;5071824;28;20043;-65
2023/10/24 08:13:01;;;;;;;16.75;7.60;;;;;;;;;;5067232;28;20048;-65
2023/10/24 08:15:30;;;;;;;27.98;11.77;;;;;;;;;;5071827;28;20474;-65
2023/10/24 08:17:56;;;;;;;18.52;8.20;;;;;;;;;;5074540;28;20109;-65
2023/10/24 08:20:22;;;;;;;13.63;7.95;;;;;;;;;;5079833;28;20048;-65
2023/10/24 08:22:48;;;;;;;16.85;8.13;;;;;;;;;;5066568;28;20044;-65
2023/10/24 08:25:14;;;;;;;15.18;7.65;;;;;;;;;;5071509;28;20048;-65
2023/10/24 08:27:40;;;;;;;14.63;7.35;;;;;;;;;;5032003;28;20041;-65
2023/10/24 08:30:06;;;;;;;18.50;9.15;;;;;;;;;;5063993;28;20051;-65
2023/10/24 08:32:32;;;;;;;17.50;8.60;;;;;;;;;;5060422;28;20037;-65
2023/10/24 08:34:59;;;;;;;16.33;8.07;;;;;;;;;;5068348;28;20494;-65
2023/10/24 08:37:25;;;;;;;16.23;8.32;;;;;;;;;;5073320;28;20036;-65
2023/10/24 08:39:52;;;;;;;15.27;8.30;;;;;;;;;;5072744;28;20097;-65
2023/10/24 08:42:18;;;;;;;19.45;7.80;;;;;;;;;;5076138;28;20038;-65
2023/10/24 08:44:44;;;;;;;15.95;8.50;;;;;;;;;;5077316;28;20040;-65
2023/10/24 08:47:11;;;;;;;18.33;8.70;;;;;;;;;;5078928;28;20119;-65
2023/10/24 08:49:37;;;;;;;18.40;9.25;;;;;;;;;;5060501;28;20101;-65
2023/10/24 08:52:04;;;;;;;16.70;8.90;;;;;;;;;;5074588;28;20044;-65
2023/10/24 08:54:30;;;;;;;20.98;12.48;;;;;;;;;;5078152;28;20071;-65
2023/10/24 08:56:57;;;;;;;16.55;8.13;;;;;;;;;;5085265;28;20035;-65
2023/10/24 08:59:24;;;;;;;14.15;8.65;;;;;;;;;;5063704;28;20048;-65
2023/10/24 09:01:50;;;;;;;17.27;9.05;;;;;;;;;;5067115;28;20068;-65
2023/10/24 09:04:17;;;;;;;14.48;8.18;;;;;;;;;;5067821;28;20055;-65
2023/10/24 09:06:43;;;;;;;15.45;8.27;;;;;;;;;;5070276;28;20067;-65
2023/10/24 09:09:09;;;;;;;14.18;7.93;;;;;;;;;;5072263;28;20052;-65
2023/10/24 09:11:53;;;;;;;15.23;8.18;;;;;;;;;;5071831;28;20567;-65
2023/10/24 09:14:20;;;;;;;16.80;7.47;;;;;;;;;;5072919;28;20066;-65
2023/10/24 09:16:52;;;;;;;16.67;7.70;;;;;;;;;;5080043;28;20801;-65
2023/10/24 09:19:18;;;;;;;14.90;7.63;;;;;;;;;;5077390;28;20033;-65
2023/10/24 09:21:44;;;;;;;14.10;7.93;;;;;;;;;;5052313;28;20045;-65
2023/10/24 09:24:13;;;;;;;12.57;7.72;;;;;;;;;;5061499;28;20473;-65
2023/10/24 09:26:39;;;;;;;14.20;7.80;;;;;;;;;;5077738;28;20366;-65
2023/10/24 09:29:08;;;;;;;19.80;9.02;;;;;;;;;;5067201;28;20047;-65
2023/10/24 09:31:35;;;;;;;12.80;8.00;;;;;;;;;;5065592;28;20037;-65
2023/10/24 09:34:00;;;;;;;11.80;7.15;;;;;;;;;;5070927;28;20044;-65
2023/10/24 09:36:26;;;;;;;13.23;7.10;;;;;;;;;;5053030;28;20040;-65
2023/10/24 09:38:54;;;;;;;14.90;7.93;;;;;;;;;;5062542;28;20059;-65
2023/10/24 09:41:21;;;;;;;11.52;6.88;;;;;;;;;;5055054;28;20490;-65
2023/10/24 09:43:50;;;;;;;11.02;6.88;;;;;;;;;;5075500;28;20111;-65
2023/10/24 09:46:22;;;;;;;13.10;7.05;;;;;;;;;;5059141;28;20211;-65
2023/10/24 09:48:49;;;;;;;11.07;6.70;;;;;;;;;;5079163;28;20052;-65
2023/10/24 09:51:19;;;;;;;16.75;7.13;;;;;;;;;;5069526;28;20047;-65
2023/10/24 09:53:45;;;;;;;13.50;7.15;;;;;;;;;;5074815;28;20044;-65
2023/10/24 09:56:12;;;;;;;11.68;6.60;;;;;;;;;;5077383;28;20104;-65
2023/10/24 09:58:41;;;;;;;10.63;6.85;;;;;;;;;;5066422;28;20044;-65
2023/10/24 10:01:09;;;;;;;14.18;7.15;;;;;;;;;;5070990;28;20049;-65
2023/10/24 10:03:35;;;;;;;10.35;6.55;;;;;;;;;;5067345;28;20051;-65
2023/10/24 10:06:08;;;;;;;12.07;7.22;;;;;;;;;;5067010;28;20051;-65
2023/10/24 10:08:38;;;;;;;13.23;7.65;;;;;;;;;;5072239;28;20047;-65
2023/10/24 10:11:05;;;;;;;12.02;7.00;;;;;;;;;;5050686;28;20037;-65
2023/10/24 10:13:34;;;;;;;13.82;7.57;;;;;;;;;;5073521;28;20110;-65
2023/10/24 10:15:59;;;;;;;;;;;;;;;;;;5056092;28;20048;-65
2023/10/24 10:18:53;;;;;;;18.80;8.07;;;;;;;;;;5080246;28;19927;-65
2023/10/24 10:21:29;;;;;;;12.35;7.07;;;;;;;;;;5075629;28;20668;-65
2023/10/24 10:24:04;;;;;;;12.63;7.63;;;;;;;;;;5077116;28;20071;-65
2023/10/24 10:26:57;;;;;;;9.98;5.90;;;;;;;;;;5058701;28;20040;-65
2023/10/24 10:29:26;;;;;;;13.23;6.68;;;;;;;;;;5050249;28;20113;-65
2023/10/24 10:32:11;;;;;;;12.25;7.00;;;;;;;;;;5064509;28;20037;-65
2023/10/24 10:34:37;;;;;;;11.43;6.75;;;;;;;;;;5065512;28;20048;-65
2023/10/24 10:37:04;;;;;;;12.48;7.03;;;;;;;;;;5063239;28;20087;-65
2023/10/24 10:39:30;;;;;;;11.23;6.78;;;;;;;;;;5066549;28;20070;-65
2023/10/24 10:41:56;;;;;;;13.25;6.90;;;;;;;;;;5067029;28;20094;-64
2023/10/24 10:44:35;;;;;;;12.63;7.15;;;;;;;;;;5063708;28;20039;-65
2023/10/24 10:47:02;;;;;;;12.48;7.30;;;;;;;;;;5070380;28;20118;-65
2023/10/24 10:49:38;;;;;;;14.57;7.78;;;;;;;;;;5077648;28;20040;-65
2023/10/24 10:52:05;;;;;;;13.90;7.47;;;;;;;;;;5074402;28;20051;-65
2023/10/24 10:54:41;;;;;;;13.43;7.70;;;;;;;;;;5061339;28;20052;-65
2023/10/24 10:57:07;;;;;;;13.65;7.15;;;;;;;;;;5066718;28;20037;-65
2023/10/24 10:59:38;;;;;;;16.33;8.40;;;;;;;;;;5067325;28;20506;-64
2023/10/24 11:02:15;;;;;;;15.52;7.72;;;;;;;;;;5061212;28;20125;-64
2023/10/24 11:04:41;;;;;;;15.38;7.93;;;;;;;;;;5037266;28;20056;-64
2023/10/24 11:07:07;;;;;;;17.85;8.00;;;;;;;;;;5056472;28;20694;-64
2023/10/24 11:09:35;;;;;;;15.23;7.95;;;;;;;;;;5062920;28;20121;-64
2023/10/24 11:12:19;;;;;;;17.10;8.10;;;;;;;;;;5064655;28;20044;-64
2023/10/24 11:15:04;;;;;;;14.82;8.32;;;;;;;;;;5056023;28;20058;-64
2023/10/24 11:17:31;;;;;;;12.73;7.75;;;;;;;;;;5050778;28;20127;-64
2023/10/24 11:20:00;;;;;;;18.38;8.90;;;;;;;;;;5065793;28;20051;-65
2023/10/24 11:22:27;;;;;;;13.90;8.45;;;;;;;;;;5062497;28;20053;-64
2023/10/24 11:24:53;;;;;;;13.82;7.93;;;;;;;;;;5058206;28;20053;-64
2023/10/24 11:27:22;;;;;;;17.70;7.65;;;;;;;;;;5059088;28;20033;-64
2023/10/24 11:29:48;;;;;;;18.98;8.82;;;;;;;;;;5055304;28;20076;-64
2023/10/24 11:32:14;;;;;;;15.13;8.02;;;;;;;;;;5052866;28;20120;-65
2023/10/24 11:34:40;;;;;;;16.65;8.57;;;;;;;;;;5053993;28;20048;-64
2023/10/24 11:37:08;;;;;;;13.55;8.43;;;;;;;;;;5062316;28;20041;-64
2023/10/24 11:39:34;;;;;;;12.70;7.70;;;;;;;;;;5062607;28;20044;-65
2023/10/24 11:42:00;;;;;;;14.20;7.28;;;;;;;;;;5052696;28;20075;-65
2023/10/24 11:44:26;;;;;;;13.98;7.53;;;;;;;;;;5050224;28;20694;-65
2023/10/24 11:46:52;;;;;;;18.95;8.85;;;;;;;;;;5043736;28;20041;-65
2023/10/24 11:49:18;;;;;;;13.27;7.93;;;;;;;;;;5025333;28;20045;-65
2023/10/24 11:51:44;;;;;;;12.20;8.10;;;;;;;;;;5057760;28;20087;-65
2023/10/24 11:54:12;;;;;;;13.60;7.82;;;;;;;;;;5060221;28;20815;-64
2023/10/24 11:56:38;;;;;;;13.35;7.65;;;;;;;;;;5056390;28;20044;-64
2023/10/24 11:59:04;;;;;;;14.48;8.00;;;;;;;;;;5067733;28;20082;-64
2023/10/24 12:01:31;;;;;;;12.75;8.32;;;;;;;;;;5061250;28;20443;-65
2023/10/24 12:03:58;;;;;;;13.63;8.27;;;;;;;;;;5057490;28;20047;-65
2023/10/24 12:06:26;;;;;;;18.70;7.90;;;;;;;;;;5041553;28;20090;-65
2023/10/24 12:08:53;;;;;;;13.52;7.47;;;;;;;;;;5058947;28;20715;-64
2023/10/24 12:11:19;;;;;;;13.30;7.63;;;;;;;;;;5063117;28;20143;-64
2023/10/24 12:13:48;;;;;;;15.30;8.38;;;;;;;;;;5060501;28;20131;-64
2023/10/24 12:16:14;;;;;;;11.70;7.85;;;;;;;;;;5064296;28;20048;-64
2023/10/24 12:18:40;;;;;;;14.43;8.13;;;;;;;;;;5069226;28;20044;-64
2023/10/24 12:21:08;;;;;;;11.40;7.40;;;;;;;;;;5050914;28;20040;-64
2023/10/24 12:23:35;;;;;;;;;;;;;;;;;;5052637;28;20619;-64
2023/10/24 12:26:01;;;;;;;14.55;7.68;;;;;;;;;;5046034;28;19927;-64
2023/10/24 12:28:28;;;;;;;12.93;7.78;;;;;;;;;;5062663;28;20084;-64
2023/10/24 12:30:53;;;;;;;12.13;7.68;;;;;;;;;;5059658;28;20048;-64
2023/10/24 12:33:20;;;;;;;15.00;7.38;;;;;;;;;;5058879;28;20379;-64
2023/10/24 12:35:46;;;;;;;15.68;8.25;;;;;;;;;;5058412;28;20613;-64
2023/10/24 12:38:12;;;;;;;14.82;7.50;;;;;;;;;;5056793;28;20063;-64
2023/10/24 12:40:38;;;;;;;12.63;8.13;;;;;;;;;;5056609;28;20064;-64
2023/10/24 12:43:04;;;;;;;11.43;7.65;;;;;;;;;;5043650;28;20098;-64
2023/10/24 12:45:30;;;;;;;15.18;7.85;;;;;;;;;;5053213;28;20043;-63
2023/10/24 12:47:59;;;;;;;15.77;8.27;;;;;;;;;;5052276;28;20171;-64
2023/10/24 12:50:25;;;;;;;14.85;8.50;;;;;;;;;;5029862;28;20059;-64
2023/10/24 12:52:51;;;;;;;11.38;7.30;;;;;;;;;;5055297;28;20058;-64
2023/10/24 12:55:19;;;;;;;11.82;7.07;;;;;;;;;;5044482;28;20059;-64
2023/10/24 12:57:45;;;;;;;14.07;7.80;;;;;;;;;;5042502;28;20140;-64
2023/10/24 13:00:11;;;;;;;12.23;7.07;;;;;;;;;;5058799;28;20135;-64
2023/10/24 13:02:38;;;;;;;12.23;7.15;;;;;;;;;;5061601;28;20123;-64
2023/10/24 13:05:04;;;;;;;11.00;6.50;;;;;;;;;;5061987;28;20080;-64
2023/10/24 13:07:30;;;;;;;9.95;6.18;;;;;;;;;;5062174;28;20047;-64
2023/10/24 13:09:56;;;;;;;12.13;6.60;;;;;;;;;;5058124;28;20040;-64
2023/10/24 13:12:22;;;;;;;14.70;6.15;;;;;;;;;;5061368;28;20033;-64
2023/10/24 13:14:48;;;;;;;16.17;6.25;;;;;;;;;;5053120;28;20053;-64
2023/10/24 13:17:14;;;;;;;11.63;6.82;;;;;;;;;;5062244;28;20044;-64
2023/10/24 13:19:40;;;;;;;10.05;6.45;;;;;;;;;;5055671;28;20097;-64
2023/10/24 13:22:06;;;;;;;10.82;6.65;;;;;;;;;;5065130;28;20044;-64
2023/10/24 13:24:32;;;;;;;12.38;6.72;;;;;;;;;;5052132;28;20043;-64
2023/10/24 13:27:00;;;;;;;11.93;6.07;;;;;;;;;;5065309;28;20048;-64
2023/10/24 13:29:26;;;;;;;12.00;6.43;;;;;;;;;;5045493;28;20119;-64
2023/10/24 13:31:52;;;;;;;16.20;9.25;;;;;;;;;;5062309;28;20127;-64
2023/10/24 13:34:18;;;;;;;11.07;6.80;;;;;;;;;;5045516;28;20037;-64
2023/10/24 13:36:45;;;;;;;9.35;6.38;;;;;;;;;;5060742;28;20068;-64
2023/10/24 13:39:12;;;;;;;9.93;6.30;;;;;;;;;;5060324;28;20054;-64
2023/10/24 13:41:38;;;;;;;9.05;5.93;;;;;;;;;;5065084;28;20048;-64
2023/10/24 13:44:04;;;;;;;14.10;6.78;;;;;;;;;;5063103;28;20091;-64
2023/10/24 13:46:30;;;;;;;10.30;6.00;;;;;;;;;;5073226;28;20044;-64
2023/10/24 13:48:57;;;;;;;11.52;7.10;;;;;;;;;;5068440;28;20051;-64
2023/10/24 13:51:23;;;;;;;13.18;6.00;;;;;;;;;;5061308;28;20494;-64
2023/10/24 13:53:49;;;;;;;10.25;6.05;;;;;;;;;;5061582;28;20047;-64
2023/10/24 13:56:15;;;;;;;10.52;5.93;;;;;;;;;;5064679;28;20048;-64
2023/10/24 13:58:41;;;;;;;6.30;4.70;;;;;;;;;;5063819;28;20036;-64
2023/10/24 14:01:07;;;;;;;9.52;5.57;;;;;;;;;;5063572;28;20819;-64
2023/10/24 14:03:35;;;;;;;8.15;4.88;;;;;;;;;;5042886;28;20048;-64
2023/10/24 14:06:01;;;;;;;10.87;5.80;;;;;;;;;;5061569;28;20086;-64
2023/10/24 14:08:27;;;;;;;10.07;5.93;;;;;;;;;;5046849;28;20056;-64
2023/10/24 14:10:53;;;;;;;9.07;5.80;;;;;;;;;;5058283;28;20103;-64
2023/10/24 14:13:19;;;;;;;11.13;6.88;;;;;;;;;;5063503;28;20052;-64
2023/10/24 14:15:45;;;;;;;12.45;7.20;;;;;;;;;;5073280;28;20052;-64
2023/10/24 14:18:13;;;;;;;11.68;6.88;;;;;;;;;;5059309;28;20106;-64
2023/10/24 14:20:39;;;;;;;10.05;6.68;;;;;;;;;;5048185;28;20128;-64
2023/10/24 14:23:06;;;;;;;11.10;6.38;;;;;;;;;;5058282;28;20067;-64